No particular awareness of the weather is required.    There are no Weather-warnings
 Banner
iom-flag.gif  iom-flag.gif


Ballaugh webcam more information Ballaugh webcam


Thunder radar more information blitzortung!


Rain radar more information rain snow radar


Visit our other weather sites:

Template documentation
and downloads

And another site



Nearby METAR Reports

   
EGNS - Isle Of Man/Rona, United Kingdom
Distance from station: SSW 16 mi
Updated: 17-11-2019 16:20
Few Clouds  
Few Clouds  
   Wind: North 4.6 mph
Wind: North 4.6 mph
Temperature: 7°C
Wind Chill: 6°C
Dew Point: 3°C
Humidity: 76%
Barometer: 1017 hPa
Clouds: Few Clouds
Visibility: More than 6 mi
Cloud details: Few Clouds 2500 ft
EGNS 171620Z 01004KT 9999 FEW025 07/03 Q1017 NOSIG
EGAC - Belfast Harbour, United Kingdom
Distance from station: WNW 57 mi
Updated: 17-11-2019 16:50
Mostly Cloudy  
Mostly Cloudy  
   Wind: NNW 5.8 mph
Wind: NNW 5.8 mph
Temperature: 7°C
Wind Chill: 5°C
Dew Point: 5°C
Humidity: 87%
Barometer: 1018 hPa
Clouds: Mostly Cloudy
Visibility: More than 6 mi
Cloud details: Partly Cloudy 2900 ft,
Mostly Cloudy 3700 ft
EGAC 171650Z AUTO 34005KT 9999 SCT029/// BKN037/// 07/05 Q1018 RERA
EGAA - Belfast/Aldergro, United Kingdom
Distance from station: WNW 71 mi
Updated: 17-11-2019 16:50
Partly Cloudy  
Partly Cloudy  
   Wind: North 4.6 mph
Wind: North 4.6 mph
Temperature: 5°C
Wind Chill: 3°C
Dew Point: 4°C
Humidity: 93%
Barometer: 1019 hPa
Clouds: Partly Cloudy
Visibility: More than 6 mi
Cloud details: Partly Cloudy 3000 ft
EGAA 171650Z 35004KT 310V010 9999 SCT030 05/04 Q1019
EGNH - Blackpool Airpor, United Kingdom
Distance from station: ESE 73 mi
Updated: 17-11-2019 16:50
Partly Cloudy  
Partly Cloudy  
   Wind: NNE 9.2 mph
Wind: NNE 9.2 mph
Temperature: 7°C
Wind Chill: 4°C
Dew Point: 6°C
Humidity: 93%
Barometer: 1016 hPa
Clouds: Partly Cloudy
Visibility: More than 6 mi
Cloud details: Partly Cloudy 4100 ft
EGNH 171650Z 03008KT 9999 SCT041 07/06 Q1016
EGOV - Valley Raf, United Kingdom
Distance from station: S 73 mi
Updated: 17-11-2019 15:50
Light Rain, Mostly Cloudy  
Light Rain, Mostly Cloudy  
   Wind: NNE 11.5 mph
Wind: NNE 11.5 mph
Temperature: 8°C
Wind Chill: 5°C
Dew Point: 6°C
Humidity: 87%
Barometer: 1016 hPa
Clouds: Mostly Cloudy
Visibility: 5 mi
Cloud details: Partly Cloudy 2400 ft,
Mostly Cloudy 3300 ft
EGOV 171550Z AUTO 02010KT 8000 -RA SCT024/// BKN033/// 08/06 Q1016
EGPK - Prestwick(Civ/Na, United Kingdom
Distance from station: N 82 mi
Updated: 17-11-2019 16:50
Few Clouds  
Few Clouds  
   Wind: Calm
Wind: Calm
Temperature: 3°C
Dew Point: 1°C
Humidity: 87%
Barometer: 1018 hPa
Clouds: Few Clouds
Visibility: More than 6 mi
Cloud details: Few Clouds 3500 ft
EGPK 171650Z 00000KT 9999 FEW035 03/01 Q1018
EIDW - Dublin Airport, Ireland
Distance from station: SW 93 mi
Updated: 17-11-2019 16:30
Mostly Cloudy  
Mostly Cloudy  
   Wind: NW 9.2 mph
Wind: NW 9.2 mph
Temperature: 4°C
Wind Chill: 1°C
Dew Point: 2°C
Humidity: 87%
Barometer: 1018 hPa
Clouds: Mostly Cloudy
Visibility: More than 6 mi
Cloud details: Few Clouds 2000 ft,
Mostly Cloudy 4000 ft
EIDW 171630Z 31008KT 9999 FEW020 BKN040 04/02 Q1018 NOSIG
EGGP - Liverpool Airpor, United Kingdom
Distance from station: SE 98 mi
Updated: 17-11-2019 16:50
Nearby Showers, Partly Cloudy  
Nearby Showers, Partly Cloudy  
   Wind: North 10.4 mph
Wind: North 10.4 mph
Temperature: 8°C
Wind Chill: 5°C
Dew Point: 7°C
Humidity: 93%
Barometer: 1016 hPa
Clouds: Partly Cloudy
Visibility: More than 6 mi
Cloud details: Few Clouds 1800 ft,
Partly Cloudy 4800 ft
EGGP 171650Z 35009KT 9999 VCSH FEW018 SCT048 08/07 Q1016
EGPF - Glasgow Airport, United Kingdom
Distance from station: N 107 mi
Updated: 17-11-2019 16:50
Partly Cloudy  
Partly Cloudy  
   Wind: NNW 4.6 mph
Wind: NNW 4.6 mph
Temperature: 2°C
Wind Chill: 0°C
Dew Point: 1°C
Humidity: 93%
Barometer: 1018 hPa
Clouds: Partly Cloudy
Visibility: More than 6 mi
Cloud details: Partly Cloudy 3500 ft
EGPF 171650Z AUTO 33004KT 9999 SCT035 02/01 Q1018
EGCC - Manchester Intl, United Kingdom
Distance from station: SE 114 mi
Updated: 17-11-2019 16:50
Mostly Cloudy  
Mostly Cloudy  
   Wind: North 9.2 mph
Wind: North 9.2 mph
Temperature: 8°C
Wind Chill: 6°C
Dew Point: 5°C
Humidity: 82%
Barometer: 1015 hPa
Clouds: Mostly Cloudy
Visibility: More than 6 mi
Cloud details: Few Clouds 2100 ft,
Mostly Cloudy 4100 ft
EGCC 171650Z AUTO 01008KT 9999 FEW021 BKN041 08/05 Q1015 NOSIG
EGNM - Leeds And Bradfo, United Kingdom
Distance from station: ESE 122 mi
Updated: 17-11-2019 16:50
Partly Cloudy  
Partly Cloudy  
   Wind: NNE 6.9 mph
Wind: NNE 6.9 mph
Temperature: 6°C
Wind Chill: 4°C
Dew Point: 6°C
Humidity: 100%
Barometer: 1015 hPa
Clouds: Partly Cloudy
Visibility: More than 6 mi
Cloud details: Partly Cloudy 500 ft,
Partly Cloudy 800 ft
EGNM 171650Z 02006KT 350V050 9999 SCT005 SCT008 06/06 Q1015
 

Script developed by  Saratoga-weather.org Adapted for the template by  Weerstation Leuven

You find our weather info also at:

UK Metoffice

WeatherCloud

WeatherlinkIP

Equipment we use:

Weather-station
Davis VP2

Weather-program
Weather Display

Weather-server
My Computer

Provider
Fasthosts

Davis VP2

Weather Display

My Computer

Fasthosts

 Banner1
iom-flag.gif  iom-flag.gif
Flag Counter 

Hits since site created in 2003